• Join FlightAware (Why Join?)
  • Login
  • US Flag 
09:47AM EST


 

Airport Tracker/Info


-or-


 

Live Flight TrackerFlight Track Log ✈ SWA2068 ✈ 06-Jul-2013 ✈ KBWI - KALB

Flight Track Log - Related Links

Times and Time Zones

All times are in EDT time to prevent confusion due to time zone crossing. See the SWA2068 flight status page for this flight to view local times or setup timezone preferences in your user account.

Time Position Orientation Groundspeed Altitude Reporting Facility
EDT Latitude Longitude Course Direction KTS MPH feet Rate Location/Type
09:41AM 39.1667 -76.7500 270° West 214 246 3,500  Level Potomac TRACON
09:43AM 39.1364 -76.5925 104° East 206 237 7,600 1,930 Climbing Washington Center
09:44AM 39.1414 -76.4828 87° East 258 297 9,900 2,508 Climbing Washington Center
09:45AM 39.1444 -76.3597 88° East 302 348 12,700 3,150 Climbing Washington Center
09:46AM 39.1667 -76.6439 270° West  Level FlightAware Approximate
09:46AM 39.1514 -76.2286 86° East 343 395 16,200  Level Washington Center
09:47AM 39.1686 -76.0842 81° East 377 434 19,300 2,380 Climbing Washington Center
09:48AM 39.1858 -75.9397 81° East 397 457 21,000 857 Climbing Washington Center
09:49AM 39.2425 -75.8167 59° Northeast 397 457 21,000 303 Level Washington Center
09:50AM 39.3217 -75.7150 45° Northeast 386 444 21,600 893 Climbing Washington Center
09:51AM 39.4072 -75.6050 45° Northeast 405 466 22,800 950 Climbing Washington Center
09:52AM 39.4906 -75.4947 46° Northeast 418 481 23,500 1,785 Climbing Washington Center
09:53AM 39.5781 -75.3814 45° Northeast 429 494 26,400 1,736 Climbing Washington Center
09:54AM 39.6631 -75.2681 46° Northeast 429 494 27,000 962 Climbing Washington Center
09:55AM 39.7289 -75.1786 46° Northeast 435 501 28,100 1,121 Climbing New York Center
09:56AM 39.8106 -75.0542 49° Northeast 440 506 29,000 446 Climbing New York Center
09:57AM 39.9006 -74.9272 47° Northeast 440 506 29,000  Level New York Center
09:58AM 39.9881 -74.8103 46° Northeast 445 512 29,000  Level New York Center
09:59AM 40.0794 -74.7017 42° Northeast 440 506 29,000  Level New York Center
10:00AM 40.1725 -74.5983 40° Northeast 435 501 29,000  Level New York Center
10:01AM 40.2656 -74.4867 42° Northeast 435 501 29,000  Level New York Center
10:02AM 40.3544 -74.3797 43° Northeast 435 501 29,000  Level New York Center
10:03AM 40.4472 -74.2728 41° Northeast 435 501 29,000 -458 Level New York Center
10:04AM 40.5378 -74.1656 42° Northeast 435 501 28,100 -958 Descending New York Center
10:05AM 40.6242 -74.0575 43° Northeast 430 495 27,100 -1,289 Descending New York Center
10:06AM 40.7147 -73.9525 41° Northeast 430 495 25,500 -1,081 Descending New York Center
10:08AM 40.8756 -73.7631 42° Northeast 443 510 24,000 -733 Descending Boston Center
10:09AM 40.9556 -73.6794 38° Northeast 422 486 23,400 -500 Descending Boston Center
10:10AM 41.0625 -73.6294 19° North 411 473 23,000 -350 Descending Boston Center
10:11AM 41.1608 -73.5761 22° Northeast 389 448 22,700 -650 Descending Boston Center
10:12AM 41.2636 -73.5225 21° North 389 448 21,700 -1,000 Descending Boston Center
10:13AM 41.3700 -73.5161 North 371 427 20,700 -1,000 Descending Boston Center
10:14AM 41.4700 -73.5178 359° North 371 427 19,700 -1,050 Descending Boston Center
10:15AM 41.5783 -73.5197 359° North 355 409 18,600 -950 Descending Boston Center
10:16AM 41.6658 -73.5211 359° North 350 403 17,800 -1,350 Descending Boston Center
10:17AM 41.7700 -73.5228 359° North 344 396 15,900 -1,800 Descending Boston Center
10:18AM 41.8533 -73.5242 359° North 344 396 14,200 -1,826 Descending Boston Center
10:18AM 41.9117 -73.5281 357° North 332 382 13,100 -1,641 Descending Boston Center
10:20AM 42.0408 -73.5275 360° North 316 364 11,000 -863 Descending Boston Center
10:21AM 42.1264 -73.5289 359° North 306 352 11,000  Level Boston Center
10:22AM 42.2075 -73.5444 352° North 297 342 11,000 -843 Level Boston Center
10:23AM 42.2864 -73.5597 352° North 285 328 9,300 -1,785 Descending Boston Center
10:24AM 42.3614 -73.5864 345° North 280 322 7,400 -1,686 Descending Boston Center
10:25AM 42.4083 -73.6606 311° West 253 291 5,900 -1,600 Descending Boston Center
10:26AM 42.4472 -73.7286 308° West 253 291 4,200 -1,450 Descending Boston Center
10:27AM 42.5092 -73.7864 325° Northwest 252 290 3,000 -600 Descending Boston Center
10:28AM 42.5653 -73.7961 353° North 231 266 3,000 -200 Level Boston Center
10:29AM 42.6153 -73.8028 354° North 208 239 2,600 -550 Descending Boston Center
10:30AM 42.6736 -73.8097 355° North 195 224 1,900 10,200 Descending Boston Center
10:31AM 42.7256 -73.8194 352° North 195 224 23,000 10,550 Climbing Boston Center
10:32AM 42.7775 -73.8261 355° North 195 224 23,000  Level Boston Center
10:33AM 42.8294 -73.8358 352° North 195 224 23,000  Level Boston Center
10:35AM 42.7491 -73.8020 163° South  Level Estimated
10:42AM 42.7491 -73.8020 304° West  Level Estimated